地図

経路データ

SID SEASON NUMBER BASIN SUBBASIN NAME ISO_TIME NATURE LAT LON WMO_WIND WMO_PRES WMO_AGENCY TRACK_TYPE DIST2LAND LANDFALL IFLAG USA_AGENCY USA_ATCF_ID USA_LAT USA_LON USA_RECORD USA_STATUS USA_WIND USA_PRES USA_SSHS USA_R34_NE USA_R34_SE USA_R34_SW USA_R34_NW USA_R50_NE USA_R50_SE USA_R50_SW USA_R50_NW USA_R64_NE USA_R64_SE USA_R64_SW USA_R64_NW USA_POCI USA_ROCI USA_RMW USA_EYE TOKYO_LAT TOKYO_LON TOKYO_GRADE TOKYO_WIND TOKYO_PRES TOKYO_R50_DIR TOKYO_R50_LONG TOKYO_R50_SHORT TOKYO_R30_DIR TOKYO_R30_LONG TOKYO_R30_SHORT TOKYO_LAND CMA_LAT CMA_LON CMA_CAT CMA_WIND CMA_PRES HKO_LAT HKO_LON HKO_CAT HKO_WIND HKO_PRES NEWDELHI_LAT NEWDELHI_LON NEWDELHI_GRADE NEWDELHI_WIND NEWDELHI_PRES NEWDELHI_CI NEWDELHI_DP NEWDELHI_POCI REUNION_LAT REUNION_LON REUNION_TYPE REUNION_WIND REUNION_PRES REUNION_TNUM REUNION_CI REUNION_RMW REUNION_R34_NE REUNION_R34_SE REUNION_R34_SW REUNION_R34_NW REUNION_R50_NE REUNION_R50_SE REUNION_R50_SW REUNION_R50_NW REUNION_R64_NE REUNION_R64_SE REUNION_R64_SW REUNION_R64_NW BOM_LAT BOM_LON BOM_TYPE BOM_WIND BOM_PRES BOM_TNUM BOM_CI BOM_RMW BOM_R34_NE BOM_R34_SE BOM_R34_SW BOM_R34_NW BOM_R50_NE BOM_R50_SE BOM_R50_SW BOM_R50_NW BOM_R64_NE BOM_R64_SE BOM_R64_SW BOM_R64_NW BOM_ROCI BOM_POCI BOM_EYE BOM_POS_METHOD BOM_PRES_METHOD NADI_LAT NADI_LON NADI_CAT NADI_WIND NADI_PRES WELLINGTON_LAT WELLINGTON_LON WELLINGTON_WIND WELLINGTON_PRES DS824_LAT DS824_LON DS824_STAGE DS824_WIND DS824_PRES TD9636_LAT TD9636_LON TD9636_STAGE TD9636_WIND TD9636_PRES TD9635_LAT TD9635_LON TD9635_WIND TD9635_PRES TD9635_ROCI NEUMANN_LAT NEUMANN_LON NEUMANN_CLASS NEUMANN_WIND NEUMANN_PRES MLC_LAT MLC_LON MLC_CLASS MLC_WIND MLC_PRES USA_GUST BOM_GUST BOM_GUST_PER REUNION_GUST REUNION_GUST_PER USA_SEAHGT USA_SEARAD_NE USA_SEARAD_SE USA_SEARAD_SW USA_SEARAD_NW STORM_SPEED STORM_DIR
1916017S18118 1916 6 SI WA NOT_NAMED 1916-01-17 01:00:00 NR -17.5000 118.300 bom main 302 271 ______O_______ -1 -17.5000 118.300 14 216
1916017S18118 1916 6 SI WA NOT_NAMED 1916-01-17 03:00:00 NR -17.8801 118.012 main 271 229 ______P_______ -1 -17.8801 118.012 14 216
1916017S18118 1916 6 SI WA NOT_NAMED 1916-01-17 06:00:00 NR -18.4417 117.581 main 229 182 ______P_______ -1 -18.4417 117.581 14 216
1916017S18118 1916 6 SI WA NOT_NAMED 1916-01-17 09:00:00 NR -18.9822 117.158 main 182 123 ______P_______ -1 -18.9822 117.158 13 217
1916017S18118 1916 6 SI WA NOT_NAMED 1916-01-17 12:00:00 NR -19.4890 116.749 main 123 84 ______P_______ -1 -19.4890 116.749 12 218
1916017S18118 1916 6 SI WA NOT_NAMED 1916-01-17 15:00:00 NR -19.9499 116.360 main 84 59 ______P_______ -1 -19.9499 116.360 11 219
1916017S18118 1916 6 SI WA NOT_NAMED 1916-01-17 18:00:00 NR -20.3529 115.998 main 59 49 ______P_______ -1 -20.3529 115.998 10 221
1916017S18118 1916 6 SI WA NOT_NAMED 1916-01-17 21:00:00 NR -20.6858 115.671 main 49 45 ______P_______ -1 -20.6858 115.671 8 225
1916017S18118 1916 6 SI WA NOT_NAMED 1916-01-18 00:00:00 NR -20.9367 115.385 main 53 45 ______P_______ -1 -20.9367 115.385 7 228
1916017S18118 1916 6 SI WA NOT_NAMED 1916-01-18 01:00:00 NR -21.0000 115.300 bom main 53 53 ______O_______ -1 -21.0000 115.300 5 235
1916017S18118 1916 6 SI WA NOT_NAMED 1916-01-18 03:00:00 NR -21.0958 115.146 main 56 49 ______P_______ -1 -21.0958 115.146 5 242
1916017S18118 1916 6 SI WA NOT_NAMED 1916-01-18 06:00:00 NR -21.1783 114.941 main 54 54 ______P_______ -1 -21.1783 114.941 4 252
1916017S18118 1916 6 SI WA NOT_NAMED 1916-01-18 09:00:00 NR -21.2154 114.747 main 59 59 ______P_______ -1 -21.2154 114.747 4 261
1916017S18118 1916 6 SI WA NOT_NAMED 1916-01-18 12:00:00 NR -21.2381 114.540 main 67 59 ______P_______ -1 -21.2381 114.540 4 262
1916017S18118 1916 6 SI WA NOT_NAMED 1916-01-18 15:00:00 NR -21.2777 114.295 main 63 63 ______P_______ -1 -21.2777 114.295 5 259
1916017S18118 1916 6 SI WA NOT_NAMED 1916-01-18 16:00:00 NR -21.3000 114.200 bom main 67 67 ______O_______ -1 -21.3000 114.200 6 259
1916017S18118 1916 6 SI WA NOT_NAMED 1916-01-18 18:00:00 NR -21.3325 113.987 main 67 56 ______P_______ -1 -21.3325 113.987 7 258
1916017S18118 1916 6 SI WA NOT_NAMED 1916-01-18 21:00:00 NR -21.4172 113.632 main 69 68 ______P_______ -1 -21.4172 113.632 7 249
1916017S18118 1916 6 SI WA NOT_NAMED 1916-01-19 00:00:00 NR -21.6037 113.239 main 89 89 ______P_______ -1 -21.6037 113.239 9 240
1916017S18118 1916 6 SI WA NOT_NAMED 1916-01-19 01:00:00 NR -21.7000 113.100 bom main 93 93 ______O_______ -1 -21.7000 113.100 11 232
1916017S18118 1916 6 SI WA NOT_NAMED 1916-01-19 03:00:00 NR -21.9553 112.754 main 106 114 ______P_______ -1 -21.9553 112.754 13 227
1916017S18118 1916 6 SI WA NOT_NAMED 1916-01-19 06:00:00 NR -22.4468 112.244 main 145 144 ______P_______ -1 -22.4468 112.244 13 217
1916017S18118 1916 6 SI WA NOT_NAMED 1916-01-19 09:00:00 NR -23.0000 111.900 bom main 179 159 ______O_______ -1 -23.0000 111.900 11 194
1916017S18118 1916 6 SI WA NOT_NAMED 1916-01-19 12:00:00 NR -23.4630 111.962 main 159 121 ______P_______ -1 -23.4630 111.962 10 159
1916017S18118 1916 6 SI WA NOT_NAMED 1916-01-19 15:00:00 NR -23.9374 112.288 main 121 61 ______P_______ -1 -23.9374 112.288 12 144
1916017S18118 1916 6 SI WA NOT_NAMED 1916-01-19 18:00:00 NR -24.4548 112.753 main 61 40 ______P_______ -1 -24.4548 112.753 14 142
1916017S18118 1916 6 SI WA NOT_NAMED 1916-01-19 21:00:00 NR -25.0470 113.234 main 41 11 ______P_______ -1 -25.0470 113.234 15 147
1916017S18118 1916 6 SI WA NOT_NAMED 1916-01-19 23:00:00 NR -25.5000 113.500 bom main 11 0 ______O_______ -1 -25.5000 113.500 16 154
1916017S18118 1916 6 SI WA NOT_NAMED 1916-01-20 00:00:00 NR -25.7464 113.605 main 0 0 ______P_______ -1 -25.7464 113.605 16 160
1916017S18118 1916 6 SI WA NOT_NAMED 1916-01-20 01:00:00 NR -26.0000 113.700 bom main 0 ______O_______ -1 -26.0000 113.700 16 161

IBTrACS Databaseについて

本データベースは、米国NOAAが公開する1842年以降の世界の熱帯低気圧のベストトラックデータアーカイブInternational Best Track Archive for Climate Stewardship (IBTrACS)を、ウェブで閲覧しやすい形式に変換したものです。

最終更新日:2021-12-06